createdAt,value
2019-01-23T00:01:54.842Z,52.17
2019-01-23T00:04:21.508Z,51.33
2019-01-23T00:06:48.000Z,52.47
2019-01-23T00:09:16.763Z,50.27
2019-01-23T00:11:43.201Z,55.27
2019-01-23T00:14:10.802Z,51.37
2019-01-23T00:16:37.392Z,47.33
2019-01-23T00:19:03.958Z,52.30
2019-01-23T00:21:32.177Z,49.73
2019-01-23T00:23:58.767Z,54.03
2019-01-23T00:26:25.393Z,51.33
2019-01-23T00:28:51.816Z,49.87
2019-01-23T00:31:18.411Z,45.20
2019-01-23T00:33:45.039Z,51.20
2019-01-23T00:36:11.545Z,44.00
2019-01-23T00:38:39.890Z,49.03
2019-01-23T00:41:06.481Z,51.47
2019-01-23T00:43:33.139Z,50.63
2019-01-23T00:46:00.117Z,51.60
2019-01-23T00:48:26.724Z,47.20
2019-01-23T00:50:53.120Z,51.67
2019-01-23T00:53:19.556Z,47.93
2019-01-23T00:55:46.195Z,50.97
2019-01-23T00:58:12.615Z,49.73
2019-01-23T01:00:39.115Z,50.83
2019-01-23T01:03:06.140Z,49.10
2019-01-23T01:05:32.722Z,47.83
2019-01-23T01:07:59.221Z,43.07
2019-01-23T01:10:25.822Z,49.97
2019-01-23T01:12:53.447Z,47.00
2019-01-23T01:15:20.085Z,46.87
2019-01-23T01:17:46.668Z,52.13
2019-01-23T01:20:16.562Z,49.53
2019-01-23T01:22:44.367Z,45.73
2019-01-23T01:25:14.293Z,50.67
2019-01-23T01:27:40.937Z,50.23
2019-01-23T01:30:19.665Z,47.27
2019-01-23T01:32:46.140Z,48.97
2019-01-23T01:35:14.604Z,51.23
2019-01-23T01:37:41.294Z,43.20
2019-01-23T01:40:12.468Z,49.43
2019-01-23T01:42:38.926Z,50.47
2019-01-23T01:45:07.540Z,49.57
2019-01-23T01:47:34.140Z,48.30
2019-01-23T01:50:02.216Z,46.77
2019-01-23T01:52:29.062Z,46.53
2019-01-23T01:54:55.474Z,47.73
2019-01-23T01:57:22.561Z,46.27
2019-01-23T01:59:49.072Z,47.57
2019-01-23T02:02:15.678Z,48.33
2019-01-23T02:04:42.285Z,47.10
2019-01-23T02:07:08.862Z,49.07
2019-01-23T02:09:35.569Z,48.23
2019-01-23T02:12:02.832Z,49.10
2019-01-23T02:14:29.343Z,47.97
2019-01-23T02:16:55.852Z,45.47
2019-01-23T02:19:22.487Z,44.60
2019-01-23T02:21:49.082Z,48.93
2019-01-23T02:24:15.605Z,48.20
2019-01-23T02:26:42.392Z,49.53
2019-01-23T02:29:09.542Z,50.83
2019-01-23T02:31:36.288Z,47.00
2019-01-23T02:34:02.959Z,49.53
2019-01-23T02:36:29.514Z,47.87
2019-01-23T02:38:56.159Z,50.53
2019-01-23T02:41:22.889Z,50.47
2019-01-23T02:43:49.326Z,50.37
2019-01-23T02:46:17.763Z,53.43
2019-01-23T02:48:44.680Z,49.90
2019-01-23T02:51:11.104Z,50.90
2019-01-23T02:53:38.188Z,46.90
2019-01-23T02:56:04.813Z,48.70
2019-01-23T02:58:32.362Z,48.33
2019-01-23T03:01:00.798Z,47.23
2019-01-23T03:03:27.295Z,48.40
2019-01-23T03:05:53.876Z,44.97
2019-01-23T03:08:20.466Z,46.17
2019-01-23T03:10:46.988Z,43.40
2019-01-23T03:13:13.921Z,40.43
2019-01-23T03:15:40.463Z,45.20
2019-01-23T03:18:07.033Z,48.43
2019-01-23T03:20:34.760Z,45.07
2019-01-23T03:23:01.378Z,47.43
2019-01-23T03:25:28.000Z,44.80
2019-01-23T03:27:54.421Z,43.37
2019-01-23T03:30:21.720Z,43.63
2019-01-23T03:32:48.817Z,44.20
2019-01-23T03:35:15.461Z,40.03
2019-01-23T03:37:42.121Z,42.20
2019-01-23T03:40:11.853Z,45.47
2019-01-23T03:42:38.446Z,46.40
2019-01-23T03:45:07.203Z,41.37
2019-01-23T03:47:33.697Z,39.90
2019-01-23T03:50:00.855Z,45.40
2019-01-23T03:52:27.395Z,41.97
2019-01-23T03:54:53.964Z,43.10
2019-01-23T03:57:20.621Z,44.33
2019-01-23T03:59:47.307Z,44.20
2019-01-23T04:02:13.979Z,44.20
2019-01-23T04:04:40.357Z,42.43
2019-01-23T04:07:06.964Z,43.30
2019-01-23T04:09:33.504Z,41.07
2019-01-23T04:11:59.985Z,42.07
2019-01-23T04:14:26.532Z,43.30
2019-01-23T04:16:52.931Z,43.77
2019-01-23T04:19:19.551Z,44.73
2019-01-23T04:21:46.235Z,45.87
2019-01-23T04:24:12.653Z,41.53
2019-01-23T04:26:39.387Z,42.93
2019-01-23T04:29:07.163Z,42.57
2019-01-23T04:31:33.727Z,40.07
2019-01-23T04:34:00.356Z,40.23
2019-01-23T04:36:28.897Z,38.97
2019-01-23T04:38:55.491Z,38.33
2019-01-23T04:41:22.085Z,42.53
2019-01-23T04:43:48.622Z,42.13
2019-01-23T04:46:14.994Z,40.43
2019-01-23T04:48:41.443Z,45.27
2019-01-23T04:51:09.826Z,41.23
2019-01-23T04:53:38.352Z,39.17
2019-01-23T04:56:05.162Z,40.27
2019-01-23T04:58:31.588Z,43.00
2019-01-23T05:01:00.035Z,39.63
2019-01-23T05:03:26.552Z,43.53
2019-01-23T05:05:53.200Z,42.23
2019-01-23T05:08:20.778Z,42.60
2019-01-23T05:10:49.182Z,40.53
2019-01-23T05:13:15.932Z,45.13
2019-01-23T05:15:42.543Z,41.57
2019-01-23T05:18:09.207Z,46.57
2019-01-23T05:20:35.737Z,42.03
2019-01-23T05:23:02.435Z,42.17
2019-01-23T05:25:28.816Z,43.00
2019-01-23T05:27:55.325Z,38.70
2019-01-23T05:30:24.961Z,40.67
2019-01-23T05:32:51.716Z,45.77
2019-01-23T05:35:18.295Z,42.73
2019-01-23T05:37:44.881Z,42.30
2019-01-23T05:40:11.569Z,44.63
2019-01-23T05:42:37.951Z,41.07
2019-01-23T05:45:11.656Z,44.63
2019-01-23T05:47:38.369Z,46.03
2019-01-23T05:50:09.777Z,43.23
2019-01-23T05:52:36.362Z,43.40
2019-01-23T05:55:05.469Z,42.03
2019-01-23T05:57:32.067Z,46.70
2019-01-23T06:00:02.370Z,44.77
2019-01-23T06:02:30.816Z,43.30
2019-01-23T06:04:59.612Z,42.80
2019-01-23T06:07:26.153Z,42.13
2019-01-23T06:09:52.672Z,42.80
2019-01-23T06:12:19.280Z,40.70
2019-01-23T06:14:45.829Z,39.97
2019-01-23T06:17:12.300Z,42.37
2019-01-23T06:19:38.881Z,46.63
2019-01-23T06:22:05.442Z,47.33
2019-01-23T06:24:31.959Z,42.43
2019-01-23T06:26:58.336Z,42.77
2019-01-23T06:29:24.999Z,43.00
2019-01-23T06:31:51.525Z,43.17
2019-01-23T06:34:18.203Z,41.30
2019-01-23T06:36:44.598Z,43.27
2019-01-23T06:39:11.126Z,42.77
2019-01-23T06:41:37.923Z,44.07
2019-01-23T06:44:04.584Z,41.97
2019-01-23T06:46:31.212Z,43.63
2019-01-23T06:48:57.854Z,40.93
2019-01-23T06:51:24.468Z,40.07
2019-01-23T06:53:50.987Z,42.53
2019-01-23T06:56:19.044Z,42.87
2019-01-23T06:58:45.563Z,38.47
2019-01-23T07:01:12.136Z,45.13
2019-01-23T07:03:38.555Z,40.87
2019-01-23T07:06:05.134Z,44.27
2019-01-23T07:08:31.651Z,41.20
2019-01-23T07:10:58.757Z,42.87
2019-01-23T07:13:25.146Z,42.23
2019-01-23T07:15:51.701Z,45.90
2019-01-23T07:18:18.180Z,45.27
2019-01-23T07:20:44.775Z,46.13
2019-01-23T07:23:11.275Z,42.13
2019-01-23T07:25:37.777Z,41.23
2019-01-23T07:28:04.353Z,39.07
2019-01-23T07:30:33.676Z,41.70
2019-01-23T07:33:01.081Z,41.43
2019-01-23T07:35:27.621Z,42.23
2019-01-23T07:37:54.232Z,44.33
2019-01-23T07:40:20.844Z,45.87
2019-01-23T07:42:47.333Z,45.23
2019-01-23T07:48:25.434Z,41.30
2019-01-23T07:50:52.070Z,42.07
2019-01-23T07:53:18.573Z,41.40
2019-01-23T07:55:45.182Z,44.97
2019-01-23T07:58:11.803Z,46.37
2019-01-23T08:00:39.595Z,42.87
2019-01-23T08:03:06.191Z,45.83
2019-01-23T08:05:32.899Z,48.80
2019-01-23T08:07:59.419Z,45.53
2019-01-23T08:10:26.247Z,48.17
2019-01-23T08:12:53.034Z,38.50
2019-01-23T08:15:24.209Z,46.40
2019-01-23T08:17:50.930Z,48.30
2019-01-23T08:20:22.935Z,42.20
2019-01-23T08:22:49.835Z,43.83
2019-01-23T08:25:16.758Z,46.53
2019-01-23T08:27:45.099Z,44.57
2019-01-23T08:30:17.186Z,42.73
2019-01-23T08:32:44.135Z,43.90
2019-01-23T08:35:10.934Z,49.07
2019-01-23T08:37:37.755Z,40.97
2019-01-23T08:40:07.998Z,45.30
2019-01-23T08:42:34.609Z,48.97
2019-01-23T08:45:01.262Z,47.43
2019-01-23T08:47:28.377Z,43.60
2019-01-23T08:49:55.111Z,44.67
2019-01-23T08:52:21.635Z,47.07
2019-01-23T08:54:48.153Z,44.00
2019-01-23T08:57:14.719Z,45.07
2019-01-23T08:59:41.381Z,43.77
2019-01-23T09:02:08.259Z,43.87
2019-01-23T09:04:35.035Z,45.93
2019-01-23T09:07:04.818Z,45.23
2019-01-23T09:09:32.882Z,44.77
2019-01-23T09:11:59.710Z,38.87
2019-01-23T09:14:26.578Z,44.80
2019-01-23T09:16:55.045Z,45.90
2019-01-23T09:19:22.021Z,41.13
2019-01-23T09:21:48.741Z,42.47
2019-01-23T09:24:15.591Z,46.97
2019-01-23T09:26:42.366Z,46.90
2019-01-23T09:29:09.253Z,48.00
2019-01-23T09:31:51.716Z,43.43
2019-01-23T09:34:25.187Z,44.50
2019-01-23T09:37:01.170Z,44.33
2019-01-23T09:39:58.823Z,44.33
2019-01-23T09:42:38.250Z,45.80
2019-01-23T09:45:15.441Z,40.37
2019-01-23T09:47:48.722Z,51.80
2019-01-23T09:50:28.031Z,46.50
2019-01-23T09:52:58.274Z,47.97
2019-01-23T09:55:24.823Z,50.53
2019-01-23T09:57:51.316Z,42.63
2019-01-23T10:00:26.402Z,48.70
2019-01-23T10:02:53.103Z,48.83
2019-01-23T10:05:19.766Z,47.60
2019-01-23T10:07:46.364Z,46.00
2019-01-23T10:10:17.789Z,42.97
2019-01-23T10:12:44.361Z,45.93
2019-01-23T10:15:14.795Z,40.67
2019-01-23T10:17:41.380Z,44.63
2019-01-23T10:20:08.089Z,42.60
2019-01-23T10:22:34.717Z,43.47
2019-01-23T10:25:02.002Z,43.83
2019-01-23T10:27:29.693Z,46.73
2019-01-23T10:29:57.084Z,47.53
2019-01-23T10:32:23.447Z,40.53
2019-01-23T10:34:50.984Z,43.37
2019-01-23T10:37:19.615Z,46.77
2019-01-23T10:39:46.399Z,42.70
2019-01-23T10:42:12.875Z,41.83
2019-01-23T10:44:39.472Z,43.87
2019-01-23T10:47:07.907Z,48.03
2019-01-23T10:49:34.247Z,42.50
2019-01-23T10:52:01.559Z,42.57
2019-01-23T10:54:28.160Z,42.57
2019-01-23T10:56:56.480Z,46.43
2019-01-23T10:59:23.058Z,44.37
2019-01-23T11:01:49.729Z,41.23
2019-01-23T11:04:16.703Z,41.77
2019-01-23T11:06:43.230Z,39.53
2019-01-23T11:09:09.783Z,43.23
2019-01-23T11:11:37.678Z,41.40
2019-01-23T11:14:04.274Z,44.17
2019-01-23T11:16:34.259Z,41.27
2019-01-23T11:19:00.875Z,39.43
2019-01-23T11:21:27.282Z,38.67
2019-01-23T11:23:54.895Z,41.50
2019-01-23T11:26:21.747Z,44.57
2019-01-23T11:28:48.175Z,43.97
2019-01-23T11:31:20.294Z,45.70
2019-01-23T11:33:43.126Z,43.47
2019-01-23T11:36:09.595Z,40.23
2019-01-23T11:38:38.032Z,41.23
2019-01-23T11:41:04.912Z,42.17
2019-01-23T11:43:33.377Z,44.27
2019-01-23T11:45:59.895Z,42.23
2019-01-23T11:48:26.385Z,40.23
2019-01-23T11:50:52.890Z,41.83
2019-01-23T11:53:19.251Z,46.33
2019-01-23T11:55:45.992Z,45.13
2019-01-23T11:58:12.486Z,43.23
2019-01-23T12:00:39.109Z,46.50
2019-01-23T12:03:05.686Z,49.33
2019-01-23T12:05:32.333Z,44.50
2019-01-23T12:07:59.134Z,45.90
2019-01-23T12:10:25.794Z,47.73
2019-01-23T12:12:52.206Z,47.83
2019-01-23T12:15:21.639Z,48.57
2019-01-23T12:17:48.344Z,44.57
2019-01-23T12:20:15.126Z,43.20
2019-01-23T12:22:42.348Z,46.97
2019-01-23T12:25:12.243Z,46.07
2019-01-23T12:27:38.676Z,48.17
2019-01-23T12:30:17.453Z,46.37
2019-01-23T12:32:44.014Z,48.97
2019-01-23T12:35:10.643Z,49.77
2019-01-23T12:37:37.153Z,50.27
2019-01-23T12:40:07.505Z,49.33
2019-01-23T12:42:34.096Z,52.37
2019-01-23T12:45:00.724Z,50.83
2019-01-23T12:47:27.271Z,49.90
2019-01-23T12:49:53.977Z,51.77
2019-01-23T12:52:20.611Z,49.47
2019-01-23T12:54:47.174Z,48.17
2019-01-23T12:57:13.697Z,43.97
2019-01-23T12:59:40.187Z,46.60
2019-01-23T13:02:09.827Z,45.23
2019-01-23T13:04:35.020Z,50.70
2019-01-23T13:07:01.719Z,50.53
2019-01-23T13:09:28.156Z,48.17
2019-01-23T13:11:54.635Z,51.73
2019-01-23T13:14:21.152Z,52.70
2019-01-23T13:16:47.633Z,50.80
2019-01-23T13:19:14.299Z,47.80
2019-01-23T13:21:40.926Z,45.50
2019-01-23T13:24:07.509Z,48.40
2019-01-23T13:26:34.147Z,41.57
2019-01-23T13:29:01.694Z,43.17
2019-01-23T13:31:28.265Z,46.23
2019-01-23T13:33:54.852Z,43.33
2019-01-23T13:36:21.359Z,43.40
2019-01-23T13:38:47.846Z,47.57
2019-01-23T13:41:17.267Z,51.27
2019-01-23T13:43:43.856Z,48.13
2019-01-23T13:46:10.397Z,47.20
2019-01-23T13:48:36.846Z,33.80
2019-01-23T13:51:03.435Z,34.67
2019-01-23T13:53:30.304Z,34.03
2019-01-23T13:55:58.624Z,35.10
2019-01-23T13:58:25.101Z,36.03
2019-01-23T14:00:51.922Z,37.60
2019-01-23T14:03:18.651Z,37.73
2019-01-23T14:05:45.315Z,37.57
2019-01-23T14:08:12.127Z,37.23
2019-01-23T14:10:38.888Z,41.43
2019-01-23T14:13:05.847Z,42.53
2019-01-23T14:15:37.340Z,47.17
2019-01-23T14:18:04.890Z,37.63
2019-01-23T14:20:31.685Z,40.03
2019-01-23T14:22:58.545Z,34.90
2019-01-23T14:25:25.300Z,35.07
2019-01-23T14:27:52.245Z,39.87
2019-01-23T14:30:25.254Z,37.67
2019-01-23T14:32:52.151Z,37.93
2019-01-23T14:35:18.965Z,35.77
2019-01-23T14:37:45.809Z,41.10
2019-01-23T14:40:12.654Z,34.73
2019-01-23T14:42:39.592Z,35.80
2019-01-23T14:45:09.440Z,34.83
2019-01-23T14:47:35.872Z,33.17
2019-01-23T14:50:05.641Z,36.70
2019-01-23T14:52:32.315Z,38.50
2019-01-23T14:54:58.711Z,33.50
2019-01-23T14:57:25.288Z,34.30
2019-01-23T14:59:51.660Z,37.57
2019-01-23T15:02:18.454Z,39.23
2019-01-23T15:04:44.996Z,49.80
2019-01-23T15:07:11.953Z,38.13
2019-01-23T15:09:38.541Z,42.47
2019-01-23T15:12:05.239Z,43.77
2019-01-23T15:14:31.990Z,43.33
2019-01-23T15:16:58.526Z,38.80
2019-01-23T15:19:24.918Z,41.20
2019-01-23T15:21:51.374Z,44.03
2019-01-23T15:24:17.887Z,42.33
2019-01-23T15:26:44.363Z,46.10
2019-01-23T15:29:10.901Z,46.23
2019-01-23T15:31:37.336Z,44.63
2019-01-23T15:34:04.045Z,44.00
2019-01-23T15:36:30.622Z,47.80
2019-01-23T15:38:57.950Z,48.17
2019-01-23T15:41:25.878Z,50.13
2019-01-23T15:43:52.478Z,51.87
2019-01-23T15:46:18.979Z,49.83
2019-01-23T15:48:45.399Z,53.13
2019-01-23T15:51:11.941Z,46.93
2019-01-23T15:53:38.351Z,50.53
2019-01-23T15:56:04.960Z,47.53
2019-01-23T15:58:31.426Z,46.40
2019-01-23T16:00:59.702Z,48.97
2019-01-23T16:03:26.135Z,50.73
2019-01-23T16:05:53.258Z,52.03
2019-01-23T16:08:19.926Z,49.93
2019-01-23T16:10:46.646Z,47.70
2019-01-23T16:13:13.182Z,47.77
2019-01-23T16:15:39.882Z,48.33
2019-01-23T16:18:06.492Z,45.80
2019-01-23T16:20:33.525Z,45.00
2019-01-23T16:23:00.454Z,46.30
2019-01-23T16:25:27.037Z,43.60
2019-01-23T16:27:53.594Z,42.30
2019-01-23T16:30:26.488Z,45.27
2019-01-23T16:32:53.164Z,47.03
2019-01-23T16:35:19.902Z,44.47
2019-01-23T16:37:46.655Z,47.43
2019-01-23T16:40:13.419Z,45.20
2019-01-23T16:42:39.921Z,46.63
2019-01-23T16:45:15.132Z,49.07
2019-01-23T16:47:41.756Z,47.03
2019-01-23T16:50:11.791Z,45.70
2019-01-23T16:52:38.357Z,47.80
2019-01-23T16:55:06.636Z,49.40
2019-01-23T16:57:33.922Z,51.77
2019-01-23T17:00:02.754Z,53.83
2019-01-23T17:02:29.168Z,53.17
2019-01-23T17:04:55.821Z,51.50
2019-01-23T17:07:22.532Z,50.17
2019-01-23T17:09:48.995Z,49.20
2019-01-23T17:12:15.625Z,52.97
2019-01-23T17:14:42.071Z,48.27
2019-01-23T17:17:08.875Z,49.03
2019-01-23T17:19:35.883Z,52.10
2019-01-23T17:22:03.817Z,47.17
2019-01-23T17:24:31.430Z,52.23
2019-01-23T17:26:58.088Z,51.90
2019-01-23T17:29:30.673Z,52.10
2019-01-23T17:31:53.270Z,48.07
2019-01-23T17:34:19.768Z,53.97
2019-01-23T17:36:46.438Z,52.47
2019-01-23T17:39:12.969Z,49.40
2019-01-23T17:41:39.445Z,48.43
2019-01-23T17:44:06.459Z,50.10
2019-01-23T17:46:33.096Z,51.00
2019-01-23T17:48:59.764Z,52.27
2019-01-23T17:51:28.589Z,55.20
2019-01-23T17:53:58.150Z,60.43
2019-01-23T17:56:24.790Z,52.27
2019-01-23T17:58:51.297Z,53.67
2019-01-23T18:01:17.957Z,54.80
2019-01-23T18:03:46.107Z,60.43
2019-01-23T18:06:12.700Z,58.30
2019-01-23T18:08:39.310Z,58.43
2019-01-23T18:11:07.282Z,56.83
2019-01-23T18:13:34.124Z,59.50
2019-01-23T18:16:02.070Z,54.63
2019-01-23T18:18:28.791Z,61.83
2019-01-23T18:20:55.383Z,60.53
2019-01-23T18:23:21.885Z,57.70
2019-01-23T18:25:48.605Z,57.03
2019-01-23T18:28:19.367Z,54.23
2019-01-23T18:30:52.773Z,57.90
2019-01-23T18:33:25.749Z,57.50
2019-01-23T18:36:29.502Z,59.47
2019-01-23T18:39:11.751Z,56.03
2019-01-23T18:41:44.838Z,56.57
2019-01-23T18:44:29.765Z,60.30
2019-01-23T18:47:00.294Z,57.23
2019-01-23T18:49:55.293Z,57.07
2019-01-23T18:52:19.579Z,59.80
2019-01-23T18:54:46.512Z,59.87
2019-01-23T18:57:28.610Z,59.03
2019-01-23T18:59:59.130Z,60.07
2019-01-23T19:02:23.733Z,58.60
2019-01-23T19:04:51.114Z,59.80
2019-01-23T19:07:17.644Z,55.37
2019-01-23T19:09:44.243Z,58.30
2019-01-23T19:12:10.781Z,59.27
2019-01-23T19:14:37.491Z,56.40
2019-01-23T19:17:04.553Z,57.00
2019-01-23T19:19:31.200Z,59.47
2019-01-23T19:21:59.880Z,58.27
2019-01-23T19:24:28.465Z,56.30
2019-01-23T19:26:55.151Z,56.70
2019-01-23T19:29:21.545Z,55.13
2019-01-23T19:31:48.202Z,59.27
2019-01-23T19:34:14.982Z,59.70
2019-01-23T19:36:41.616Z,57.77
2019-01-23T19:39:08.634Z,54.87
2019-01-23T19:41:35.448Z,56.80
2019-01-23T19:44:02.457Z,58.93
2019-01-23T19:46:29.145Z,63.33
2019-01-23T19:48:55.555Z,56.97
2019-01-23T19:51:22.197Z,56.60
2019-01-23T19:53:48.727Z,56.40
2019-01-23T19:56:15.420Z,53.47
2019-01-23T19:58:43.180Z,61.17
2019-01-23T20:01:09.867Z,57.93
2019-01-23T20:03:37.856Z,59.50
2019-01-23T20:06:04.742Z,54.40
2019-01-23T20:08:31.341Z,56.50
2019-01-23T20:10:58.937Z,60.27
2019-01-23T20:13:25.477Z,57.23
2019-01-23T20:15:53.039Z,61.23
2019-01-23T20:18:19.415Z,61.17
2019-01-23T20:20:45.969Z,59.60
2019-01-23T20:23:12.584Z,58.13
2019-01-23T20:25:39.379Z,50.90
2019-01-23T20:28:06.638Z,54.63
2019-01-23T20:30:36.318Z,52.80
2019-01-23T20:33:03.543Z,55.17
2019-01-23T20:35:30.173Z,56.17
2019-01-23T20:37:56.701Z,56.47
2019-01-23T20:40:23.220Z,52.70
2019-01-23T20:42:49.871Z,57.07
2019-01-23T20:45:16.617Z,56.03
2019-01-23T20:47:43.261Z,58.70
2019-01-23T20:50:27.368Z,55.47
2019-01-23T20:52:54.008Z,58.63
2019-01-23T20:55:20.695Z,60.90
2019-01-23T20:57:47.295Z,59.93
2019-01-23T21:00:23.664Z,55.57
2019-01-23T21:02:52.216Z,59.43
2019-01-23T21:05:18.820Z,54.40
2019-01-23T21:07:47.306Z,55.87
2019-01-23T21:10:15.988Z,53.60
2019-01-23T21:12:43.256Z,53.97
2019-01-23T21:15:18.985Z,54.53
2019-01-23T21:17:45.559Z,51.67
2019-01-23T21:20:13.649Z,56.90
2019-01-23T21:22:40.190Z,55.63
2019-01-23T21:25:08.119Z,61.20
2019-01-23T21:27:34.754Z,56.23
2019-01-23T21:30:01.933Z,57.80
2019-01-23T21:32:28.466Z,57.27
2019-01-23T21:34:54.917Z,55.63
2019-01-23T21:37:21.750Z,54.53
2019-01-23T21:39:48.444Z,54.83
2019-01-23T21:42:15.010Z,50.83
2019-01-23T21:44:41.653Z,56.17
2019-01-23T21:47:10.267Z,52.20
2019-01-23T21:49:36.882Z,55.83
2019-01-23T21:52:03.718Z,51.80
2019-01-23T21:54:30.126Z,57.90
2019-01-23T21:56:56.867Z,48.63
2019-01-23T21:59:23.272Z,49.80
2019-01-23T22:01:49.936Z,52.33
2019-01-23T22:04:16.750Z,56.67
2019-01-23T22:06:43.493Z,53.43
2019-01-23T22:09:10.090Z,50.90
2019-01-23T22:11:43.249Z,52.87
2019-01-23T22:14:04.988Z,50.07
2019-01-23T22:16:31.374Z,53.77
2019-01-23T22:18:57.820Z,52.63
2019-01-23T22:21:24.309Z,56.27
2019-01-23T22:23:52.142Z,54.53
2019-01-23T22:26:18.528Z,53.37
2019-01-23T22:28:45.087Z,50.43
2019-01-23T22:31:11.926Z,53.60
2019-01-23T22:33:38.595Z,54.17
2019-01-23T22:36:04.996Z,53.33
2019-01-23T22:38:31.597Z,53.93
2019-01-23T22:40:57.985Z,53.27
2019-01-23T22:43:26.045Z,56.03
2019-01-23T22:45:52.536Z,58.93
2019-01-23T22:48:18.942Z,55.97
2019-01-23T22:50:45.569Z,56.70
2019-01-23T22:53:12.119Z,56.97
2019-01-23T22:55:38.629Z,61.33
2019-01-23T22:58:05.252Z,62.57
2019-01-23T23:00:46.120Z,56.63
2019-01-23T23:03:13.633Z,63.43
2019-01-23T23:05:40.174Z,58.73
2019-01-23T23:08:06.804Z,59.30
2019-01-23T23:10:33.292Z,57.50
2019-01-23T23:12:59.829Z,59.27
2019-01-23T23:15:26.434Z,54.70
2019-01-23T23:17:53.087Z,58.40
2019-01-23T23:20:19.593Z,56.40
2019-01-23T23:22:46.265Z,58.67
2019-01-23T23:25:12.840Z,58.57
2019-01-23T23:27:40.528Z,57.43
2019-01-23T23:30:15.566Z,62.03
2019-01-23T23:32:42.184Z,58.77
2019-01-23T23:35:08.770Z,57.43
2019-01-23T23:37:35.624Z,58.23
2019-01-23T23:40:05.329Z,58.73
2019-01-23T23:42:31.960Z,58.43
2019-01-23T23:44:58.636Z,60.90
2019-01-23T23:47:25.254Z,56.60
2019-01-23T23:49:51.630Z,60.57
2019-01-23T23:52:18.293Z,59.73
2019-01-23T23:54:44.659Z,60.47
2019-01-23T23:57:11.019Z,55.60
2019-01-23T23:59:37.439Z,53.60
